createdAt,value
2023-01-03T00:04:56.611Z,1.45
2023-01-03T00:10:43.530Z,1.70
2023-01-03T00:16:30.476Z,1.65
2023-01-03T00:22:17.907Z,1.88
2023-01-03T00:28:04.789Z,2.10
2023-01-03T00:33:51.965Z,1.67
2023-01-03T00:39:39.062Z,2.13
2023-01-03T00:45:26.879Z,1.45
2023-01-03T00:51:26.660Z,1.60
2023-01-03T00:57:13.367Z,1.67
2023-01-03T01:03:00.346Z,1.40
2023-01-03T01:08:48.391Z,1.25
2023-01-03T01:14:38.215Z,1.63
2023-01-03T01:20:26.797Z,1.80
2023-01-03T01:26:16.870Z,1.65
2023-01-03T01:32:03.704Z,1.20
2023-01-03T01:37:51.520Z,1.52
2023-01-03T01:44:25.753Z,1.27
2023-01-03T01:50:37.151Z,1.25
2023-01-03T01:56:33.398Z,1.33
2023-01-03T02:02:22.401Z,1.40
2023-01-03T02:08:09.125Z,2.00
2023-01-03T02:14:14.756Z,1.70
2023-01-03T02:20:39.270Z,1.60
2023-01-03T02:27:03.750Z,1.63
2023-01-03T02:33:20.892Z,1.95
2023-01-03T02:39:44.092Z,2.20
2023-01-03T02:45:44.104Z,3.33
2023-01-03T02:52:05.711Z,3.30
2023-01-03T03:05:17.631Z,3.75
2023-01-03T03:11:41.265Z,3.08
2023-01-03T03:17:40.359Z,3.05
2023-01-03T03:23:55.429Z,3.33
2023-01-03T03:29:49.123Z,3.50
2023-01-03T03:36:19.570Z,3.38
2023-01-03T03:43:08.996Z,4.30
2023-01-03T03:49:39.073Z,4.70
2023-01-03T03:55:54.616Z,3.50
2023-01-03T04:02:01.414Z,4.07
2023-01-03T04:08:23.867Z,4.63
2023-01-03T04:14:36.134Z,5.43
2023-01-03T04:20:39.676Z,4.82
2023-01-03T04:27:12.356Z,5.20
2023-01-03T04:45:21.205Z,4.75
2023-01-03T04:51:29.702Z,5.20
2023-01-03T04:57:28.444Z,6.15
2023-01-03T05:03:41.332Z,5.83
2023-01-03T05:09:39.040Z,5.70
2023-01-03T05:15:32.799Z,4.72
2023-01-03T05:21:58.569Z,4.05
2023-01-03T05:27:51.086Z,4.68
2023-01-03T05:33:51.417Z,4.28
2023-01-03T05:39:39.901Z,3.70
2023-01-03T05:46:04.812Z,4.43
2023-01-03T05:51:55.364Z,3.83
2023-01-03T05:57:54.416Z,3.83
2023-01-03T06:04:39.141Z,3.42
2023-01-03T06:11:00.190Z,3.15
2023-01-03T06:17:24.741Z,4.18
2023-01-03T06:23:25.492Z,4.28
2023-01-03T06:29:56.218Z,2.60
2023-01-03T06:35:43.519Z,2.53
2023-01-03T06:41:49.091Z,3.47
2023-01-03T06:48:25.955Z,3.90
2023-01-03T06:54:43.547Z,2.88
2023-01-03T07:14:09.693Z,3.40
2023-01-03T07:19:56.596Z,7.60
2023-01-03T07:25:45.721Z,3.38
2023-01-03T07:31:33.184Z,2.05
2023-01-03T07:37:20.264Z,2.55
2023-01-03T07:43:27.352Z,2.42
2023-01-03T07:49:14.919Z,5.65
2023-01-03T07:55:02.184Z,2.10
2023-01-03T08:00:57.393Z,2.60
2023-01-03T08:06:49.880Z,2.85
2023-01-03T08:12:58.876Z,2.63
2023-01-03T08:18:46.933Z,2.58
2023-01-03T08:24:33.645Z,2.85
2023-01-03T08:33:55.503Z,1.75
2023-01-03T08:38:53.675Z,1.65
2023-01-03T08:44:49.180Z,2.47
2023-01-03T08:50:40.158Z,1.50
2023-01-03T08:56:30.583Z,2.42
2023-01-03T09:02:28.086Z,2.13
2023-01-03T09:08:27.505Z,1.38
2023-01-03T09:14:36.433Z,2.30
2023-01-03T09:20:34.513Z,1.13
2023-01-03T09:26:31.521Z,1.58
2023-01-03T09:32:19.631Z,1.48
2023-01-03T09:38:14.057Z,2.58
2023-01-03T09:44:08.044Z,2.45
2023-01-03T09:56:30.158Z,1.70
2023-01-03T10:03:12.399Z,1.58
2023-01-03T10:09:29.845Z,2.05
2023-01-03T10:15:57.831Z,4.55
2023-01-03T10:22:16.802Z,1.65
2023-01-03T10:28:20.529Z,2.65
2023-01-03T10:34:15.660Z,1.60
2023-01-03T10:40:04.116Z,2.10
2023-01-03T10:46:03.001Z,1.48
2023-01-03T10:51:56.034Z,2.75
2023-01-03T10:57:58.828Z,1.85
2023-01-03T11:04:15.180Z,2.10
2023-01-03T11:10:06.478Z,2.38
2023-01-03T11:16:04.688Z,1.75
2023-01-03T11:22:02.536Z,1.23
2023-01-03T11:28:15.438Z,2.80
2023-01-03T11:34:21.902Z,1.23
2023-01-03T11:40:08.918Z,1.83
2023-01-03T11:46:22.473Z,1.48
2023-01-03T11:52:41.939Z,1.42
2023-01-03T11:59:10.819Z,1.25
2023-01-03T12:05:03.463Z,1.50
2023-01-03T12:17:37.470Z,1.27
2023-01-03T12:23:39.982Z,1.60
2023-01-03T12:35:28.941Z,1.35
2023-01-03T12:41:42.202Z,1.15
2023-01-03T12:47:48.127Z,1.25
2023-01-03T12:53:49.692Z,0.75
2023-01-03T13:00:04.358Z,0.63
2023-01-03T13:05:51.280Z,1.35
2023-01-03T13:11:50.134Z,1.17
2023-01-03T13:17:53.152Z,1.35
2023-01-03T13:24:00.157Z,1.33
2023-01-03T13:29:50.006Z,2.20
2023-01-03T13:35:57.039Z,2.08
2023-01-03T13:42:02.589Z,1.42
2023-01-03T13:47:54.855Z,1.30
2023-01-03T13:54:03.571Z,1.38
2023-01-03T13:59:51.097Z,1.33
2023-01-03T14:06:16.119Z,1.83
2023-01-03T14:12:25.184Z,2.72
2023-01-03T14:18:45.800Z,1.40
2023-01-03T14:24:39.735Z,1.85
2023-01-03T14:30:34.330Z,1.33
2023-01-03T14:36:21.100Z,1.42
2023-01-03T14:42:16.297Z,1.00
2023-01-03T14:48:06.001Z,0.90
2023-01-03T14:53:56.674Z,1.08
2023-01-03T14:59:46.924Z,1.00
2023-01-03T15:05:43.332Z,1.35
2023-01-03T15:11:56.405Z,1.27
2023-01-03T15:17:44.289Z,0.90
2023-01-03T15:23:47.502Z,1.00
2023-01-03T15:29:44.881Z,1.25
2023-01-03T15:35:37.859Z,1.13
2023-01-03T15:42:12.308Z,1.73
2023-01-03T15:48:00.526Z,1.42
2023-01-03T15:53:47.673Z,1.17
2023-01-03T15:59:43.283Z,1.52
2023-01-03T16:05:32.932Z,1.67
2023-01-03T16:11:33.833Z,1.70
2023-01-03T16:17:28.552Z,1.85
2023-01-03T16:23:24.796Z,2.20
2023-01-03T16:29:14.182Z,2.00
2023-01-03T16:35:04.962Z,1.38
2023-01-03T16:40:54.563Z,2.07
2023-01-03T16:46:41.490Z,1.63
2023-01-03T16:52:38.030Z,1.20
2023-01-03T16:58:25.083Z,1.45
2023-01-03T17:04:16.845Z,1.58
2023-01-03T17:10:09.176Z,1.45
2023-01-03T17:15:58.618Z,1.15
2023-01-03T17:21:51.448Z,0.95
2023-01-03T17:27:49.004Z,1.13
2023-01-03T17:33:39.312Z,1.13
2023-01-03T17:39:27.892Z,0.93
2023-01-03T17:45:33.838Z,0.63
2023-01-03T17:51:41.635Z,1.50
2023-01-03T17:57:48.555Z,0.50
2023-01-03T18:03:49.333Z,4.88
2023-01-03T18:09:36.478Z,0.70
2023-01-03T18:15:23.652Z,0.75
2023-01-03T18:21:28.071Z,0.52
2023-01-03T18:27:19.053Z,0.65
2023-01-03T18:33:05.973Z,0.82
2023-01-03T18:39:02.082Z,0.98
2023-01-03T18:44:58.270Z,1.10
2023-01-03T18:50:51.873Z,1.33
2023-01-03T18:56:43.820Z,1.90
2023-01-03T19:02:37.595Z,0.93
2023-01-03T19:08:27.310Z,0.82
2023-01-03T19:14:14.558Z,0.47
2023-01-03T19:20:01.312Z,0.47
2023-01-03T19:25:48.575Z,0.45
2023-01-03T19:31:41.284Z,0.90
2023-01-03T19:37:28.227Z,0.50
2023-01-03T19:43:23.040Z,0.43
2023-01-03T19:49:22.367Z,0.80
2023-01-03T19:55:13.127Z,0.40
2023-01-03T20:01:02.899Z,0.45
2023-01-03T20:06:49.821Z,0.45
2023-01-03T20:12:36.818Z,0.63
2023-01-03T20:18:29.653Z,0.60
2023-01-03T20:24:28.076Z,0.38
2023-01-03T20:30:17.978Z,0.55
2023-01-03T20:36:16.085Z,0.40
2023-01-03T20:42:25.034Z,0.35
2023-01-03T20:48:25.152Z,0.40
2023-01-03T20:54:13.393Z,0.20
2023-01-03T21:00:00.433Z,0.40
2023-01-03T21:05:59.286Z,0.40
2023-01-03T21:18:47.881Z,0.30
2023-01-03T21:24:45.186Z,0.50
2023-01-03T21:30:36.307Z,0.40
2023-01-03T21:43:03.632Z,0.40
2023-01-03T21:49:16.819Z,0.90
2023-01-03T21:55:43.112Z,1.85
2023-01-03T22:01:56.666Z,2.30
2023-01-03T22:15:10.141Z,1.98
2023-01-03T22:21:28.520Z,2.30
2023-01-03T22:43:53.850Z,2.30
2023-01-03T22:49:46.056Z,2.05
2023-01-03T22:56:04.864Z,2.03
2023-01-03T23:01:52.386Z,1.70
2023-01-03T23:07:45.100Z,2.13
2023-01-03T23:14:16.885Z,1.30
2023-01-03T23:20:32.851Z,1.77
2023-01-03T23:34:27.153Z,2.58
2023-01-03T23:46:31.868Z,2.55
2023-01-03T23:59:18.675Z,1.73
